»·PEaware :: N232WP KTOA-KVNY

N232WP :: KTOA-KVNY

FLIGHT INFORMATION

Flight Status: Arrived
Operator: Privately registered:
United States
More flights under this callsign
Pilot: Walter P. (10403)
Aircraft: CESSNA 172 SKYHAWK
(C172)
More flights by this aircraft type
Origin: KTOA Zamperini
United States
Destination: KVNY Van Nuys
United States
More flights between these airports :: More routes between these airports
Route:
File this flight plan on PilotEdge
Remarks:
Altitude:
(Current/Filed)
2,500ft
Speed:
(Current/Filed)
100kts
Departed: 16-Apr-18 06:21 PM
Arrived: 16-Apr-18 06:43 PM
Distance/Time
Traveled:
26nm/0:22
Distance/Time
To Go:
Arrived

Flight Plot

Page will automatically refresh every two minutes.


Map Options




Map Legend


Flown Route
Filed Route
Departure Airport
Arrival Airport
Navaid (VOR, NDB)
Fix

Horizontal Profiles

Position Reports

Time Latitude Longitude Heading Altitude Ground
Speed
16-Apr-18 17:52 33.801601 -118.341420 219 101ft 0kts
16-Apr-18 17:53 33.801601 -118.341420 219 101ft 0kts
16-Apr-18 17:54 33.801601 -118.341420 219 101ft 0kts
16-Apr-18 17:55 33.801601 -118.341420 219 101ft 0kts
16-Apr-18 17:56 33.801601 -118.341420 219 101ft 0kts
16-Apr-18 17:57 33.801601 -118.341420 219 101ft 0kts
16-Apr-18 17:58 33.801601 -118.341420 219 101ft 0kts
16-Apr-18 17:59 33.801601 -118.341420 219 101ft 0kts
16-Apr-18 18:00 33.801601 -118.341420 219 101ft 0kts
16-Apr-18 18:01 33.801601 -118.341420 219 101ft 0kts
16-Apr-18 18:02 33.801601 -118.341420 219 101ft 0kts
16-Apr-18 18:03 33.801601 -118.341420 219 101ft 0kts
16-Apr-18 18:04 33.801601 -118.341420 219 101ft 0kts
16-Apr-18 18:05 33.801601 -118.341420 219 101ft 0kts
16-Apr-18 18:06 33.801601 -118.341420 219 101ft 0kts
16-Apr-18 18:07 33.801601 -118.341420 219 101ft 0kts
16-Apr-18 18:08 33.801601 -118.341420 219 101ft 0kts
16-Apr-18 18:09 33.801601 -118.341420 219 101ft 0kts
16-Apr-18 18:10 33.801601 -118.341420 219 101ft 0kts
16-Apr-18 18:11 33.801601 -118.341420 219 101ft 0kts
16-Apr-18 18:12 33.801601 -118.341420 219 101ft 0kts
16-Apr-18 18:13 33.801601 -118.341420 219 101ft 0kts
16-Apr-18 18:14 33.801596 -118.341424 217 101ft 1kts
16-Apr-18 18:15 33.799835 -118.338451 127 101ft 15kts
16-Apr-18 18:16 33.797585 -118.334710 28 101ft 7kts
16-Apr-18 18:17 33.799142 -118.333244 41 101ft 0kts
16-Apr-18 18:18 33.799142 -118.333244 41 101ft 0kts
16-Apr-18 18:19 33.799344 -118.333056 33 101ft 4kts
16-Apr-18 18:20 33.806481 -118.341726 302 460ft 62kts
16-Apr-18 18:21 33.821254 -118.351726 18 1132ft 111kts
16-Apr-18 18:22 33.846445 -118.330578 347 1630ft 103kts
16-Apr-18 18:23 33.868047 -118.343686 316 1843ft 83kts
16-Apr-18 18:24 33.882233 -118.355775 310 2084ft 52kts
16-Apr-18 18:25 33.890821 -118.367723 301 2538ft 56kts
16-Apr-18 18:26 33.912698 -118.372035 318 2470ft 82kts
16-Apr-18 18:27 33.933084 -118.387306 310 2389ft 90kts
16-Apr-18 18:28 33.947648 -118.405601 298 2527ft 71kts
16-Apr-18 18:29 33.961404 -118.423222 310 2525ft 75kts
16-Apr-18 18:30 33.981307 -118.433690 333 2524ft 86kts
16-Apr-18 18:31 34.003630 -118.440606 326 2524ft 83kts
16-Apr-18 18:32 34.024654 -118.454866 317 2528ft 91kts
16-Apr-18 18:33 34.048343 -118.468948 327 2940ft 99kts
16-Apr-18 18:34 34.073935 -118.479449 334 3518ft 98kts
16-Apr-18 18:35 34.104641 -118.481097 349 3535ft 117kts
16-Apr-18 18:36 34.133130 -118.481380 349 3532ft 100kts
16-Apr-18 18:37 34.157534 -118.484972 327 3116ft 88kts
16-Apr-18 18:38 34.180772 -118.495510 337 2171ft 94kts
16-Apr-18 18:39 34.202655 -118.500073 332 1709ft 74kts
16-Apr-18 18:40 34.223594 -118.507298 5 1711ft 83kts
16-Apr-18 18:41 34.221537 -118.491324 184 1041ft 48kts
16-Apr-18 18:42 34.210392 -118.490615 213 806ft 19kts
16-Apr-18 18:43 34.212138 -118.491769 355 806ft 20kts
16-Apr-18 18:44 34.217213 -118.492317 357 806ft 13kts
16-Apr-18 18:45 34.217886 -118.495524 358 806ft 0kts
16-Apr-18 18:46 34.217886 -118.495524 358 806ft 0kts
16-Apr-18 18:47 34.217886 -118.495524 358 806ft 0kts
16-Apr-18 18:48 34.217886 -118.495524 358 806ft 0kts
16-Apr-18 18:49 34.217886 -118.495524 358 806ft 0kts
16-Apr-18 18:50 34.217886 -118.495524 358 806ft 0kts
16-Apr-18 18:51 34.217886 -118.495524 358 806ft 0kts

Navigation Log

Ident Type
Flight plan parsing failed, navigation log unavailable